Time;durP1;ratioP1;P1;durP2;ratioP2;P2;SDS_P1;SDS_P2;PMS_P1;PMS_P2;Temp;Humidity;BMP_temperature;BMP_pressure;BME280_temperature;BME280_humidity;BME280_pressure;Samples;Min_cycle;Max_cycle;Signal;HPM_P1;HPM_P2
2022/01/21 00:01:18;;;;;;;11.83;1.60;;;-1.90;99.90;;;;;;4899217;29;20244;-93
2022/01/21 00:03:44;;;;;;;8.27;1.30;;;-1.90;99.90;;;;;;4899355;29;20254;-93
2022/01/21 00:06:10;;;;;;;6.77;1.27;;;-1.90;99.90;;;;;;4898848;29;20232;-93
2022/01/21 00:08:37;;;;;;;5.47;1.43;;;-1.90;99.90;;;;;;4898848;29;20187;-92
2022/01/21 00:11:03;;;;;;;5.47;1.70;;;-1.90;99.90;;;;;;4898717;29;20191;-93
2022/01/21 00:13:36;;;;;;;4.73;1.20;;;-1.90;99.90;;;;;;4898528;29;20238;-93
2022/01/21 00:16:08;;;;;;;6.47;1.40;;;-1.90;99.90;;;;;;4898769;29;20563;-93
2022/01/21 00:18:36;;;;;;;14.80;1.60;;;-1.90;99.90;;;;;;4899465;29;20193;-92
2022/01/21 00:32:01;;;;;;;7.30;1.40;;;-1.90;99.90;;;;;;4900046;29;20179;-92
2022/01/21 00:34:27;;;;;;;6.40;1.33;;;-1.80;99.90;;;;;;4898768;29;20175;-93
2022/01/21 00:36:52;;;;;;;4.23;1.43;;;-1.90;99.90;;;;;;4898964;29;20187;-93
2022/01/21 00:39:22;;;;;;;9.07;1.47;;;-1.80;99.90;;;;;;4899390;29;20180;-94
2022/01/21 00:44:40;;;;;;;6.77;1.50;;;-2.00;99.90;;;;;;4884744;29;20191;-93
2022/01/21 00:47:06;;;;;;;7.43;1.37;;;-2.10;99.90;;;;;;4898769;29;20310;-94
2022/01/21 00:49:32;;;;;;;8.53;1.57;;;-2.10;99.90;;;;;;4902317;29;20179;-94
2022/01/21 00:51:58;;;;;;;5.83;1.83;;;-2.00;99.90;;;;;;4902284;29;20196;-93
2022/01/21 00:54:23;;;;;;;6.57;1.60;;;-1.90;99.90;;;;;;4902191;29;20275;-93
2022/01/21 00:56:49;;;;;;;8.40;1.70;;;-2.00;99.90;;;;;;4902221;29;20191;-94
2022/01/21 00:59:15;;;;;;;5.37;1.73;;;-2.10;99.90;;;;;;4902033;29;20636;-93
2022/01/21 01:01:41;;;;;;;9.50;1.60;;;-2.10;99.90;;;;;;4902091;29;20203;-94
2022/01/21 01:04:07;;;;;;;7.33;1.77;;;-2.20;99.90;;;;;;4901834;29;20678;-94
2022/01/21 01:06:33;;;;;;;7.47;1.23;;;-2.20;99.90;;;;;;5346544;23;20236;-93
2022/01/21 01:08:59;;;;;;;4.90;1.10;;;-2.20;99.90;;;;;;4904541;29;20185;-93
2022/01/21 01:22:10;;;;;;;8.93;1.60;;;-2.20;99.90;;;;;;4905626;29;20565;-93
2022/01/21 01:27:41;;;;;;;10.97;2.00;;;-2.20;99.90;;;;;;4904785;29;20616;-93
2022/01/21 01:30:16;;;;;;;7.93;1.53;;;-2.10;99.90;;;;;;4903437;29;20169;-92
2022/01/21 01:32:45;;;;;;;7.17;1.57;;;-2.10;99.90;;;;;;4904978;29;20236;-92
2022/01/21 01:35:14;;;;;;;11.00;2.17;;;-2.20;99.90;;;;;;4903690;29;20641;-94
2022/01/21 01:40:39;;;;;;;14.03;1.63;;;-2.20;99.90;;;;;;4904778;29;20281;-92
2022/01/21 01:50:59;;;;;;;7.97;1.97;;;-2.20;99.90;;;;;;4904038;29;20166;-93
2022/01/21 01:53:40;;;;;;;12.67;2.13;;;-2.20;99.90;;;;;;4903358;29;20209;-92
2022/01/21 01:56:10;;;;;;;8.47;1.67;;;-2.20;99.90;;;;;;4904219;29;20199;-94
2022/01/21 01:58:38;;;;;;;15.50;1.90;;;-2.20;99.90;;;;;;4903467;29;20208;-92
2022/01/21 02:01:05;;;;;;;9.03;2.10;;;-2.10;99.90;;;;;;4903727;29;20179;-92
2022/01/21 02:03:34;;;;;;;11.43;1.97;;;-2.10;99.90;;;;;;4904096;29;20180;-93
2022/01/21 02:06:00;;;;;;;7.93;2.20;;;-2.10;99.90;;;;;;4903291;29;20200;-92
2022/01/21 02:08:27;;;;;;;11.03;2.10;;;-2.10;99.90;;;;;;4903259;29;20195;-92
2022/01/21 02:10:53;;;;;;;14.63;2.40;;;-2.20;99.90;;;;;;4903615;29;20179;-93
2022/01/21 02:13:26;;;;;;;8.90;1.90;;;-2.20;99.90;;;;;;4902478;29;20184;-93
2022/01/21 02:16:16;;;;;;;12.00;2.13;;;-2.20;99.90;;;;;;4902932;29;20178;-92
2022/01/21 02:21:30;;;;;;;12.77;2.00;;;-2.10;99.90;;;;;;4904815;29;20195;-93
2022/01/21 02:24:02;;;;;;;6.73;1.60;;;-2.10;99.90;;;;;;4903554;29;20674;-94
2022/01/21 02:26:29;;;;;;;9.50;1.57;;;-2.10;99.90;;;;;;4902237;29;20214;-94
2022/01/21 02:28:56;;;;;;;13.87;1.73;;;-2.00;99.90;;;;;;4902741;29;20287;-92
2022/01/21 02:31:22;;;;;;;21.37;2.30;;;-2.00;99.90;;;;;;4902579;29;20186;-93
2022/01/21 02:33:48;;;;;;;12.73;2.07;;;-2.00;99.90;;;;;;4902780;29;20268;-92
2022/01/21 02:36:16;;;;;;;9.40;2.10;;;-2.00;99.90;;;;;;4902585;29;20179;-92
2022/01/21 02:38:42;;;;;;;10.47;2.00;;;-2.00;99.90;;;;;;4902964;29;20221;-92
2022/01/21 02:41:08;;;;;;;12.50;1.93;;;-2.00;99.90;;;;;;4903632;29;20280;-92
2022/01/21 02:43:35;;;;;;;9.37;1.90;;;-2.00;99.90;;;;;;4902789;29;20723;-93
2022/01/21 02:46:06;;;;;;;9.20;1.70;;;-2.00;99.90;;;;;;4903609;29;20626;-93
2022/01/21 02:48:35;;;;;;;9.50;1.77;;;-1.90;99.90;;;;;;4903136;29;20225;-92
2022/01/21 02:51:02;;;;;;;10.77;1.97;;;-1.90;99.90;;;;;;4902220;29;20549;-92
2022/01/21 02:54:03;;;;;;;15.33;2.17;;;-1.90;99.90;;;;;;4902854;29;20551;-92
2022/01/21 02:56:27;;;;;;;10.80;2.73;;;-1.90;99.90;;;;;;4902983;29;20199;-92
2022/01/21 02:58:53;;;;;;;14.07;2.10;;;-1.80;99.90;;;;;;4902490;29;20214;-92
2022/01/21 03:01:19;;;;;;;10.03;1.97;;;-1.80;99.90;;;;;;4902280;29;20179;-93
2022/01/21 03:03:46;;;;;;;9.10;2.13;;;-1.80;99.90;;;;;;4902488;29;20205;-94
2022/01/21 03:06:15;;;;;;;10.37;2.13;;;-1.80;99.90;;;;;;4902027;29;20240;-94
2022/01/21 03:08:43;;;;;;;15.87;2.47;;;-1.70;99.90;;;;;;4902040;29;20203;-94
2022/01/21 03:11:09;;;;;;;12.27;2.07;;;-1.70;99.90;;;;;;4901048;29;20212;-93
2022/01/21 03:13:34;;;;;;;11.83;2.23;;;-1.70;99.90;;;;;;4902524;29;20184;-94
2022/01/21 03:16:01;;;;;;;15.90;2.60;;;-1.70;99.90;;;;;;4902129;29;20180;-92
2022/01/21 03:18:27;;;;;;;12.07;2.70;;;-1.60;99.90;;;;;;4902233;29;20377;-94
2022/01/21 03:20:52;;;;;;;15.17;2.53;;;-1.60;99.90;;;;;;4902499;29;20192;-92
2022/01/21 03:23:20;;;;;;;13.90;2.73;;;-1.60;99.90;;;;;;4902273;29;20641;-93
2022/01/21 03:25:47;;;;;;;12.40;2.30;;;-1.70;99.90;;;;;;4902896;29;20187;-94
2022/01/21 03:28:14;;;;;;;14.47;2.70;;;-1.70;99.90;;;;;;4902173;29;20233;-94
2022/01/21 03:30:41;;;;;;;13.63;2.33;;;-1.70;99.90;;;;;;4901758;29;20638;-93
2022/01/21 03:33:07;;;;;;;16.00;2.63;;;-1.70;99.90;;;;;;4901898;29;20262;-94
2022/01/21 03:35:33;;;;;;;11.03;2.40;;;-1.70;99.90;;;;;;4901859;29;20236;-93
2022/01/21 03:38:00;;;;;;;15.90;2.97;;;-1.70;99.90;;;;;;4901109;29;20203;-92
2022/01/21 03:40:27;;;;;;;18.80;2.70;;;-1.70;99.90;;;;;;4901161;29;20544;-94
2022/01/21 03:42:53;;;;;;;12.50;2.60;;;-1.80;99.90;;;;;;4901137;29;20177;-93
2022/01/21 03:45:18;;;;;;;17.30;3.37;;;-1.80;99.90;;;;;;4901134;29;20181;-93
2022/01/21 03:47:44;;;;;;;15.43;2.60;;;-1.80;99.90;;;;;;4900446;29;20220;-94
2022/01/21 03:52:56;;;;;;;12.13;3.10;;;-1.80;99.90;;;;;;4902213;29;20188;-93
2022/01/21 03:55:22;;;;;;;15.73;2.13;;;-1.80;99.90;;;;;;4901343;29;20207;-93
2022/01/21 03:57:47;;;;;;;15.87;2.87;;;-1.80;99.90;;;;;;4901068;29;20263;-93
2022/01/21 04:00:22;;;;;;;13.73;2.70;;;-1.80;99.90;;;;;;4900695;29;20596;-94
2022/01/21 04:02:50;;;;;;;13.97;2.90;;;-1.80;99.90;;;;;;4900761;29;20271;-92
2022/01/21 04:05:16;;;;;;;14.43;2.63;;;-1.80;99.90;;;;;;4900307;29;20647;-92
2022/01/21 04:07:43;;;;;;;12.33;2.33;;;-1.80;99.90;;;;;;4900545;29;20236;-93
2022/01/21 04:10:10;;;;;;;18.77;2.60;;;-1.80;99.90;;;;;;4901324;29;20286;-95
2022/01/21 04:12:35;;;;;;;10.13;2.20;;;-1.80;99.90;;;;;;4900433;29;20183;-93
2022/01/21 04:15:01;;;;;;;16.83;3.00;;;-1.70;99.90;;;;;;4900350;29;20268;-94
2022/01/21 04:17:27;;;;;;;13.57;2.67;;;-1.70;99.90;;;;;;4901396;29;20216;-94
2022/01/21 04:19:53;;;;;;;14.83;2.73;;;-1.70;99.90;;;;;;4901584;29;20633;-93
2022/01/21 04:22:20;;;;;;;10.67;2.20;;;-1.70;99.90;;;;;;4903056;29;20188;-94
2022/01/21 04:24:47;;;;;;;18.87;3.37;;;-1.60;99.90;;;;;;4904734;29;20190;-94
2022/01/21 04:27:15;;;;;;;13.90;2.50;;;-1.60;99.90;;;;;;4905033;29;20219;-93
2022/01/21 04:29:43;;;;;;;12.93;2.30;;;-1.60;99.90;;;;;;4905010;29;20177;-93
2022/01/21 04:32:09;;;;;;;13.00;2.57;;;-1.60;99.90;;;;;;4905325;29;20569;-93
2022/01/21 04:34:35;;;;;;;16.50;2.67;;;-1.50;99.90;;;;;;4905866;29;20632;-92
2022/01/21 04:37:01;;;;;;;14.40;2.40;;;-1.40;99.90;;;;;;4905201;29;20217;-93
2022/01/21 04:39:33;;;;;;;12.77;2.47;;;-1.40;99.90;;;;;;4904689;29;20180;-92
2022/01/21 04:47:29;;;;;;;5.50;1.73;;;-1.40;99.90;;;;;;4905536;29;20223;-93
2022/01/21 04:49:55;;;;;;;14.03;2.60;;;-1.30;99.90;;;;;;4904345;29;20556;-93
2022/01/21 04:52:23;;;;;;;14.73;2.70;;;-1.30;99.90;;;;;;4904545;29;20204;-94
2022/01/21 04:54:49;;;;;;;10.50;2.23;;;-1.20;99.90;;;;;;4904610;29;20676;-94
2022/01/21 04:57:15;;;;;;;18.03;2.47;;;-1.20;99.90;;;;;;4905306;29;20212;-93
2022/01/21 04:59:43;;;;;;;15.73;2.10;;;-1.20;99.90;;;;;;4905162;29;20181;-93
2022/01/21 05:02:10;;;;;;;15.57;2.10;;;-1.10;99.90;;;;;;4904302;29;20272;-93
2022/01/21 05:04:37;;;;;;;13.50;1.80;;;-0.90;99.90;;;;;;4904038;29;20245;-93
2022/01/21 05:07:06;;;;;;;14.73;2.13;;;-0.90;99.90;;;;;;4904927;29;20289;-94
2022/01/21 05:09:34;;;;;;;12.97;2.30;;;-0.90;99.90;;;;;;4904562;29;20240;-92
2022/01/21 05:12:07;;;;;;;17.10;2.30;;;-0.90;99.90;;;;;;4903937;29;20650;-92
2022/01/21 05:14:47;;;;;;;16.00;2.57;;;-0.80;99.90;;;;;;4904885;29;20176;-93
2022/01/21 05:17:15;;;;;;;14.53;2.77;;;-0.80;99.90;;;;;;4904512;29;20207;-95
2022/01/21 05:19:41;;;;;;;12.87;2.53;;;-0.70;99.90;;;;;;4904293;29;20186;-94
2022/01/21 05:22:07;;;;;;;10.90;2.40;;;-0.60;99.90;;;;;;4904626;29;20269;-93
2022/01/21 05:24:33;;;;;;;13.73;2.63;;;-0.50;99.90;;;;;;4904280;29;20188;-92
2022/01/21 05:27:01;;;;;;;11.97;2.33;;;-0.60;99.90;;;;;;4904964;29;20225;-93
2022/01/21 05:29:34;;;;;;;16.43;2.83;;;-0.60;99.90;;;;;;4904488;29;20573;-93
2022/01/21 05:32:02;;;;;;;17.87;2.37;;;-0.60;99.90;;;;;;4905731;29;20262;-94
2022/01/21 05:34:29;;;;;;;15.00;2.33;;;-0.50;99.90;;;;;;4903612;29;20640;-92
2022/01/21 05:36:55;;;;;;;13.20;1.93;;;-0.50;99.90;;;;;;4904291;29;20199;-94
2022/01/21 05:39:23;;;;;;;16.83;2.13;;;-0.40;99.90;;;;;;4903545;29;20207;-94
2022/01/21 05:41:51;;;;;;;10.43;2.23;;;-0.30;99.90;;;;;;4904984;29;20211;-93
2022/01/21 05:46:59;;;;;;;13.37;2.83;;;-0.40;99.90;;;;;;4905671;29;20221;-93
2022/01/21 05:49:27;;;;;;;12.70;2.70;;;-0.30;99.90;;;;;;4904915;29;20189;-92
2022/01/21 05:52:01;;;;;;;16.57;3.10;;;-0.30;99.90;;;;;;4904226;29;20172;-94
2022/01/21 05:54:28;;;;;;;14.27;2.70;;;-0.20;99.90;;;;;;4905960;29;20294;-95
2022/01/21 05:56:54;;;;;;;10.00;2.27;;;-0.20;99.90;;;;;;4905365;29;20231;-93
2022/01/21 05:59:21;;;;;;;13.00;2.33;;;-0.20;99.90;;;;;;4906470;29;20186;-94
2022/01/21 06:01:50;;;;;;;10.40;2.37;;;-0.30;99.90;;;;;;4906970;29;20210;-93
2022/01/21 06:04:16;;;;;;;11.00;2.10;;;-0.30;99.90;;;;;;4907660;29;20190;-94
2022/01/21 06:06:42;;;;;;;12.13;2.40;;;-0.30;99.90;;;;;;4905881;29;20318;-95
2022/01/21 06:09:09;;;;;;;16.00;2.30;;;-0.30;99.90;;;;;;4907456;29;20214;-93
2022/01/21 06:11:37;;;;;;;14.30;2.23;;;-0.40;99.90;;;;;;4906570;29;20180;-94
2022/01/21 06:14:03;;;;;;;12.10;2.30;;;-0.30;99.90;;;;;;4905977;29;20610;-93
2022/01/21 06:16:29;;;;;;;12.70;2.63;;;-0.30;99.90;;;;;;4906325;29;20180;-94
2022/01/21 06:18:56;;;;;;;11.83;2.60;;;-0.30;99.90;;;;;;4906264;29;20741;-95
2022/01/21 06:21:22;;;;;;;14.07;2.43;;;-0.20;99.90;;;;;;4907741;29;20179;-95
2022/01/21 06:23:48;;;;;;;10.50;2.63;;;-0.20;99.90;;;;;;4906723;29;20180;-96
2022/01/21 06:26:14;;;;;;;10.33;2.50;;;-0.20;99.90;;;;;;4906279;29;20211;-94
2022/01/21 06:28:40;;;;;;;16.60;3.00;;;-0.10;99.90;;;;;;4906456;29;20230;-93
2022/01/21 06:31:06;;;;;;;23.07;2.77;;;0.00;99.90;;;;;;4906573;29;20175;-94
2022/01/21 06:33:32;;;;;;;9.50;2.40;;;0.00;99.90;;;;;;4905943;29;20171;-94
2022/01/21 06:35:58;;;;;;;17.10;2.17;;;0.20;99.90;;;;;;4906813;29;20540;-93
2022/01/21 06:38:24;;;;;;;17.93;2.33;;;0.10;99.90;;;;;;4905075;29;20586;-93
2022/01/21 06:40:51;;;;;;;11.60;2.43;;;0.20;99.90;;;;;;4906169;29;20533;-93
2022/01/21 06:43:18;;;;;;;9.50;2.43;;;0.30;99.90;;;;;;4905082;29;20182;-96
2022/01/21 06:45:46;;;;;;;15.77;2.30;;;0.30;99.90;;;;;;4903956;29;20199;-93
2022/01/21 06:48:14;;;;;;;11.27;2.30;;;0.40;99.90;;;;;;4905684;29;20206;-91
2022/01/21 06:50:43;;;;;;;12.87;2.17;;;0.40;99.90;;;;;;4905582;29;20175;-94
2022/01/21 06:53:10;;;;;;;10.37;1.67;;;0.50;99.90;;;;;;4905872;29;20656;-92
2022/01/21 06:55:37;;;;;;;11.57;2.00;;;0.50;99.90;;;;;;4905672;29;20239;-93
2022/01/21 06:58:08;;;;;;;9.47;2.20;;;0.40;99.90;;;;;;4906059;29;20235;-94
2022/01/21 07:00:33;;;;;;;12.03;1.77;;;0.30;99.90;;;;;;4905681;29;20176;-94
2022/01/21 07:03:00;;;;;;;13.33;2.40;;;0.30;99.90;;;;;;4905891;29;20692;-94
2022/01/21 07:05:29;;;;;;;7.47;1.87;;;0.40;99.90;;;;;;4906502;29;20283;-94
2022/01/21 07:07:56;;;;;;;11.67;2.60;;;0.40;99.90;;;;;;4905211;29;20235;-94
2022/01/21 07:10:22;;;;;;;14.17;2.20;;;0.40;99.90;;;;;;4905181;29;20182;-92
2022/01/21 07:12:48;;;;;;;9.90;2.10;;;0.50;99.90;;;;;;4905805;29;20227;-93
2022/01/21 07:15:21;;;;;;;7.40;1.80;;;0.50;99.90;;;;;;4905745;29;20234;-94
2022/01/21 07:17:49;;;;;;;15.50;2.23;;;0.60;99.90;;;;;;4905920;29;20297;-95
2022/01/21 07:20:17;;;;;;;9.17;1.90;;;0.60;99.90;;;;;;4904854;29;20175;-95
2022/01/21 07:22:43;;;;;;;9.70;1.87;;;0.70;99.90;;;;;;4905297;29;20188;-93
2022/01/21 07:25:10;;;;;;;9.77;1.90;;;0.70;99.90;;;;;;4904608;29;20176;-91
2022/01/21 07:27:37;;;;;;;7.90;1.80;;;0.60;99.90;;;;;;4904664;29;20606;-94
2022/01/21 07:30:04;;;;;;;10.37;2.53;;;0.70;99.90;;;;;;4905324;29;20258;-93
2022/01/21 07:32:31;;;;;;;12.73;2.43;;;0.60;99.90;;;;;;4904725;29;20191;-95
2022/01/21 07:34:59;;;;;;;12.97;2.50;;;0.60;99.90;;;;;;4904337;29;20183;-92
2022/01/21 07:37:26;;;;;;;15.90;2.87;;;0.50;99.90;;;;;;4904686;29;20207;-91
2022/01/21 07:39:53;;;;;;;12.77;2.47;;;0.50;99.90;;;;;;4904697;29;20184;-95
2022/01/21 07:42:20;;;;;;;11.83;2.30;;;0.50;99.90;;;;;;4905413;29;20179;-93
2022/01/21 07:44:47;;;;;;;12.23;2.73;;;0.40;99.90;;;;;;4905218;29;20194;-93
2022/01/21 07:47:13;;;;;;;13.70;2.53;;;0.50;99.90;;;;;;4903519;29;20225;-94
2022/01/21 07:49:43;;;;;;;8.70;2.20;;;0.60;99.90;;;;;;4904855;29;20179;-94
2022/01/21 07:52:09;;;;;;;13.57;2.63;;;0.70;99.90;;;;;;4904628;29;20175;-93
2022/01/21 07:54:35;;;;;;;17.93;3.27;;;0.80;99.90;;;;;;4904248;29;20210;-93
2022/01/21 07:57:02;;;;;;;5.93;1.90;;;0.70;99.90;;;;;;4904244;29;20576;-93
2022/01/21 07:59:30;;;;;;;18.10;3.00;;;0.80;99.90;;;;;;4904400;29;20191;-93
2022/01/21 08:02:02;;;;;;;10.30;2.60;;;0.90;99.90;;;;;;4904640;29;20184;-92
2022/01/21 08:04:38;;;;;;;15.23;2.37;;;1.00;99.90;;;;;;4904254;29;20655;-93
2022/01/21 08:07:11;;;;;;;16.67;2.87;;;0.90;99.90;;;;;;4903491;29;20231;-93
2022/01/21 08:09:39;;;;;;;13.83;2.33;;;1.00;99.90;;;;;;4904322;29;20235;-93
2022/01/21 08:12:06;;;;;;;10.90;2.73;;;1.00;99.90;;;;;;4904183;29;20201;-94
2022/01/21 08:14:33;;;;;;;7.63;2.00;;;1.20;99.90;;;;;;4904186;29;20189;-92
2022/01/21 08:17:01;;;;;;;7.73;1.97;;;1.20;99.90;;;;;;4904281;29;20654;-96
2022/01/21 08:19:27;;;;;;;15.70;2.50;;;1.20;99.90;;;;;;4903821;29;20290;-92
2022/01/21 08:21:53;;;;;;;10.63;2.37;;;1.30;99.90;;;;;;4904116;29;20624;-92
2022/01/21 08:24:22;;;;;;;8.77;2.40;;;1.30;99.90;;;;;;4903674;29;20175;-94
2022/01/21 08:26:59;;;;;;;8.33;2.27;;;1.30;99.90;;;;;;4903190;29;20199;-94
2022/01/21 08:29:26;;;;;;;9.43;2.77;;;1.30;99.90;;;;;;4903617;29;20263;-92
2022/01/21 08:31:52;;;;;;;10.27;3.03;;;1.40;99.90;;;;;;4903323;29;20187;-94
2022/01/21 08:34:18;;;;;;;14.60;2.63;;;1.40;99.90;;;;;;4903481;29;20263;-92
2022/01/21 08:36:46;;;;;;;11.40;3.30;;;1.40;99.90;;;;;;4903653;29;20207;-94
2022/01/21 08:39:13;;;;;;;12.53;2.53;;;1.30;99.90;;;;;;4903778;29;20658;-94
2022/01/21 08:41:39;;;;;;;9.77;3.10;;;1.40;99.90;;;;;;4903517;29;20195;-93
2022/01/21 08:44:09;;;;;;;14.20;2.90;;;1.50;99.90;;;;;;4903297;29;20179;-93
2022/01/21 08:46:41;;;;;;;8.20;2.27;;;1.50;99.90;;;;;;4903314;29;20203;-94
2022/01/21 08:49:08;;;;;;;9.90;2.80;;;1.60;99.90;;;;;;4903673;29;20205;-92
2022/01/21 08:51:51;;;;;;;13.90;2.83;;;1.60;99.90;;;;;;4903394;29;20266;-93
2022/01/21 08:54:26;;;;;;;9.67;2.83;;;1.60;99.90;;;;;;4904074;29;20253;-93
2022/01/21 08:56:53;;;;;;;9.03;2.53;;;1.60;99.90;;;;;;4903258;29;20280;-92
2022/01/21 08:59:26;;;;;;;8.83;2.80;;;1.70;99.90;;;;;;4902876;29;20190;-94
2022/01/21 09:01:55;;;;;;;12.97;2.90;;;1.70;99.90;;;;;;4903227;29;20171;-92
2022/01/21 09:04:37;;;;;;;9.17;2.90;;;1.70;99.90;;;;;;4903260;29;20180;-95
2022/01/21 09:07:11;;;;;;;12.60;3.07;;;1.70;99.90;;;;;;4900967;29;20242;-94
2022/01/21 09:09:45;;;;;;;12.23;3.70;;;1.80;99.90;;;;;;4903518;29;20166;-95
2022/01/21 09:12:28;;;;;;;10.90;2.87;;;1.90;99.90;;;;;;4905568;29;20169;-93
2022/01/21 09:14:56;;;;;;;12.73;2.63;;;1.90;99.90;;;;;;4905349;29;20198;-94
2022/01/21 09:17:23;;;;;;;14.93;2.73;;;1.90;99.90;;;;;;4904741;29;20211;-93
2022/01/21 09:19:53;;;;;;;11.70;2.70;;;1.90;99.90;;;;;;4903861;29;20219;-93
2022/01/21 09:22:24;;;;;;;13.40;3.60;;;2.00;99.90;;;;;;4904382;29;20183;-95
2022/01/21 09:24:51;;;;;;;9.20;2.60;;;2.00;99.90;;;;;;4903739;29;20179;-93
2022/01/21 09:27:18;;;;;;;7.33;2.70;;;2.00;99.90;;;;;;4904094;29;20312;-94
2022/01/21 09:29:44;;;;;;;8.70;2.63;;;1.90;99.90;;;;;;4905352;29;20542;-95
2022/01/21 09:32:27;;;;;;;7.17;2.60;;;1.90;99.90;;;;;;4903665;29;20178;-93
2022/01/21 09:34:53;;;;;;;9.50;2.63;;;2.00;99.90;;;;;;4903547;29;20171;-94
2022/01/21 09:37:19;;;;;;;11.10;3.23;;;2.00;99.90;;;;;;4905518;29;20211;-95
2022/01/21 09:39:45;;;;;;;6.17;2.40;;;2.00;99.90;;;;;;4905842;29;20263;-95
2022/01/21 09:42:14;;;;;;;9.27;2.77;;;2.00;99.90;;;;;;4904808;29;20175;-92
2022/01/21 09:44:51;;;;;;;9.20;2.80;;;2.00;99.90;;;;;;4904065;29;20231;-95
2022/01/21 09:47:19;;;;;;;11.40;2.83;;;2.00;99.90;;;;;;4902936;29;20253;-94
2022/01/21 09:49:47;;;;;;;7.13;2.60;;;2.10;99.90;;;;;;4904173;29;20223;-93
2022/01/21 09:52:28;;;;;;;10.17;3.43;;;2.20;99.90;;;;;;4904319;29;20199;-92
2022/01/21 09:54:54;;;;;;;11.93;2.67;;;2.20;99.90;;;;;;4905094;29;20223;-92
2022/01/21 09:57:35;;;;;;;9.17;2.37;;;2.20;99.90;;;;;;4904543;29;20262;-95
2022/01/21 10:00:07;;;;;;;10.20;2.40;;;2.20;99.90;;;;;;4905302;29;20647;-96
2022/01/21 10:02:33;;;;;;;9.90;3.13;;;2.20;99.90;;;;;;4904488;29;20183;-94
2022/01/21 10:05:10;;;;;;;9.53;2.80;;;2.20;99.90;;;;;;4903360;29;20190;-94
2022/01/21 10:07:55;;;;;;;12.60;2.60;;;2.30;99.90;;;;;;4902317;29;20342;-94
2022/01/21 10:10:21;;;;;;;8.93;2.50;;;2.30;99.90;;;;;;4903735;29;20170;-94
2022/01/21 10:12:50;;;;;;;11.67;2.60;;;2.40;99.90;;;;;;4904386;29;20540;-94
2022/01/21 10:15:37;;;;;;;9.17;2.47;;;2.40;99.90;;;;;;4904025;29;20667;-94
2022/01/21 10:18:11;;;;;;;11.83;2.47;;;2.40;99.90;;;;;;4902755;29;20203;-93
2022/01/21 10:21:06;;;;;;;12.43;2.30;;;2.50;99.90;;;;;;4902909;29;20181;-94
2022/01/21 10:24:18;;;;;;;12.20;2.63;;;2.60;99.90;;;;;;4903071;29;20194;-93
2022/01/21 10:26:52;;;;;;;8.87;2.77;;;2.60;99.90;;;;;;4901926;29;20218;-92
2022/01/21 10:29:39;;;;;;;12.13;2.60;;;2.60;99.90;;;;;;4904271;29;20167;-93
2022/01/21 10:32:07;;;;;;;10.60;2.37;;;2.60;99.90;;;;;;4903418;29;20167;-93
2022/01/21 10:34:45;;;;;;;10.20;2.13;;;2.70;99.90;;;;;;4902376;29;20167;-94
2022/01/21 10:37:39;;;;;;;7.53;1.97;;;2.70;99.90;;;;;;4903039;29;20203;-94
2022/01/21 10:40:10;;;;;;;13.23;2.57;;;2.80;99.90;;;;;;4904139;29;20175;-94
2022/01/21 10:42:38;;;;;;;10.60;2.80;;;2.80;99.90;;;;;;4901469;29;20194;-93
2022/01/21 10:45:23;;;;;;;9.03;2.30;;;2.90;99.90;;;;;;4902034;29;20187;-94
2022/01/21 10:47:50;;;;;;;11.80;2.17;;;3.00;99.90;;;;;;4901891;29;20215;-95
2022/01/21 10:50:23;;;;;;;12.80;2.10;;;3.00;99.90;;;;;;4901824;29;20242;-92
2022/01/21 10:56:12;;;;;;;8.33;2.27;;;2.80;99.90;;;;;;4901426;29;20666;-93
2022/01/21 10:58:51;;;;;;;10.53;2.50;;;2.80;99.90;;;;;;4901332;29;20290;-95
2022/01/21 11:01:22;;;;;;;8.30;2.37;;;2.80;99.90;;;;;;4901312;29;20178;-94
2022/01/21 11:04:11;;;;;;;10.57;1.83;;;2.90;99.90;;;;;;4900781;29;20187;-93
2022/01/21 11:06:56;;;;;;;8.13;2.20;;;3.00;99.90;;;;;;4899410;29;20258;-95
2022/01/21 11:09:28;;;;;;;9.63;2.30;;;3.10;99.90;;;;;;4901690;29;20174;-93
2022/01/21 11:12:14;;;;;;;12.50;2.30;;;3.10;99.90;;;;;;4900773;29;20179;-94
2022/01/21 11:15:03;;;;;;;10.57;2.00;;;3.20;99.90;;;;;;4900624;29;20585;-94
2022/01/21 11:17:57;;;;;;;11.40;2.80;;;3.20;99.90;;;;;;4901654;29;20207;-93
2022/01/21 11:20:42;;;;;;;13.17;2.40;;;3.30;99.90;;;;;;4901313;29;20598;-93
2022/01/21 11:23:10;;;;;;;11.43;2.30;;;3.30;99.90;;;;;;4901848;29;20175;-95
2022/01/21 11:25:51;;;;;;;17.13;2.33;;;3.20;99.90;;;;;;4901822;29;20187;-94
2022/01/21 11:28:37;;;;;;;11.63;2.33;;;3.20;99.90;;;;;;4901646;29;20241;-93
2022/01/21 11:31:07;;;;;;;7.67;2.27;;;3.40;99.90;;;;;;4901013;29;20175;-93
2022/01/21 11:33:33;;;;;;;9.20;2.10;;;3.30;99.90;;;;;;4901966;29;20172;-95
2022/01/21 11:36:02;;;;;;;7.33;2.33;;;3.30;99.90;;;;;;4901934;29;20187;-93
2022/01/21 11:38:30;;;;;;;13.63;3.20;;;3.30;99.90;;;;;;4901599;29;20203;-93
2022/01/21 11:41:03;;;;;;;17.10;2.57;;;3.30;99.90;;;;;;4901178;29;20584;-93
2022/01/21 11:43:31;;;;;;;9.77;2.40;;;3.30;99.90;;;;;;4901219;29;20260;-93
2022/01/21 11:48:51;;;;;;;11.43;2.63;;;3.30;99.90;;;;;;4902159;29;20254;-93
2022/01/21 11:51:40;;;;;;;14.53;3.03;;;3.30;99.90;;;;;;4900724;29;20232;-93
2022/01/21 11:54:15;;;;;;;6.90;1.77;;;3.40;99.90;;;;;;4901819;29;20280;-93
2022/01/21 11:57:00;;;;;;;10.67;2.20;;;3.40;99.90;;;;;;4901415;29;20210;-93
2022/01/21 11:59:34;;;;;;;6.80;1.93;;;3.40;99.90;;;;;;4901104;29;20687;-92
2022/01/21 12:02:19;;;;;;;12.97;2.27;;;3.50;99.90;;;;;;4901749;29;20199;-91
2022/01/21 12:04:53;;;;;;;9.13;1.80;;;3.50;99.90;;;;;;4901142;29;20186;-93
2022/01/21 12:07:44;;;;;;;8.63;2.47;;;3.50;99.90;;;;;;4900897;29;20231;-93
2022/01/21 12:10:29;;;;;;;9.97;1.80;;;3.50;99.90;;;;;;4902721;29;20267;-92
2022/01/21 12:13:12;;;;;;;9.17;2.30;;;3.50;99.90;;;;;;4901972;29;20648;-93
2022/01/21 12:16:21;;;;;;;10.70;2.00;;;3.60;99.90;;;;;;4901257;29;20178;-93
2022/01/21 12:19:09;;;;;;;10.83;2.67;;;3.70;99.90;;;;;;4900499;29;20214;-93
2022/01/21 12:21:43;;;;;;;6.13;1.90;;;3.80;99.90;;;;;;4901563;29;20190;-92
2022/01/21 12:24:54;;;;;;;12.50;1.80;;;3.90;99.90;;;;;;4901068;29;20187;-93
2022/01/21 12:27:28;;;;;;;9.03;2.00;;;3.90;99.90;;;;;;4901120;29;20573;-93
2022/01/21 12:30:30;;;;;;;13.03;2.27;;;3.80;99.90;;;;;;4900236;29;20175;-93
2022/01/21 12:33:08;;;;;;;7.10;2.37;;;3.90;99.90;;;;;;4900904;29;20355;-93
2022/01/21 12:35:36;;;;;;;8.43;2.00;;;3.90;99.90;;;;;;4900232;29;20523;-93
2022/01/21 12:41:15;;;;;;;12.27;2.00;;;4.00;99.90;;;;;;4886542;29;20244;-92
2022/01/21 12:43:47;;;;;;;11.60;2.67;;;4.00;99.90;;;;;;4903633;29;20192;-92
2022/01/21 12:46:38;;;;;;;13.57;3.47;;;3.90;99.90;;;;;;4904331;29;20180;-94
2022/01/21 12:49:49;;;;;;;9.17;2.77;;;3.80;99.90;;;;;;4903632;29;20199;-94
2022/01/21 12:52:30;;;;;;;10.43;2.60;;;3.80;99.90;;;;;;4903428;29;20217;-93
2022/01/21 12:57:45;;;;;;;12.57;2.23;;;3.70;99.90;;;;;;4903327;29;20274;-92
2022/01/21 13:04:01;;;;;;;9.50;2.60;;;3.60;99.90;;;;;;4903463;29;20202;-94
2022/01/21 13:07:08;;;;;;;13.50;2.37;;;3.60;99.90;;;;;;4902514;29;20286;-94
2022/01/21 13:09:38;;;;;;;11.90;2.33;;;3.60;99.90;;;;;;4902521;29;20287;-94
2022/01/21 13:12:12;;;;;;;10.10;2.63;;;3.60;99.90;;;;;;4903736;29;20175;-95
2022/01/21 13:14:45;;;;;;;7.37;1.87;;;3.60;99.90;;;;;;4903555;29;20749;-94
2022/01/21 13:17:15;;;;;;;11.40;2.37;;;3.50;99.90;;;;;;4903553;29;20243;-93
2022/01/21 13:20:05;;;;;;;7.47;2.00;;;3.60;99.90;;;;;;4904848;29;20251;-93
2022/01/21 13:22:36;;;;;;;10.00;2.30;;;3.80;99.90;;;;;;4903237;29;20202;-93
2022/01/21 13:25:22;;;;;;;10.03;2.37;;;3.70;99.90;;;;;;4904519;29;20640;-93
2022/01/21 13:28:00;;;;;;;13.87;2.37;;;3.70;99.90;;;;;;4903520;29;20254;-93
2022/01/21 13:30:36;;;;;;;8.73;2.23;;;3.80;99.90;;;;;;4904648;29;20211;-94
2022/01/21 13:33:10;;;;;;;10.93;2.30;;;3.80;99.90;;;;;;4905033;29;20576;-93
2022/01/21 13:35:42;;;;;;;13.90;2.13;;;3.90;99.90;;;;;;4904307;29;20179;-93
2022/01/21 13:38:15;;;;;;;10.73;3.27;;;3.80;99.90;;;;;;4903611;29;20205;-93
2022/01/21 13:40:49;;;;;;;10.83;2.13;;;3.80;99.90;;;;;;4904232;29;20274;-93
2022/01/21 13:43:24;;;;;;;9.47;2.07;;;3.80;99.90;;;;;;4904554;29;20208;-93
2022/01/21 13:45:59;;;;;;;10.73;2.30;;;3.70;99.90;;;;;;4903955;29;20260;-93
2022/01/21 13:48:37;;;;;;;10.37;2.07;;;3.80;99.90;;;;;;4904049;29;20233;-94
2022/01/21 13:51:07;;;;;;;12.00;2.07;;;3.70;99.90;;;;;;4904632;29;20179;-94
2022/01/21 13:53:41;;;;;;;8.57;2.30;;;3.70;99.90;;;;;;4903788;29;20186;-93
2022/01/21 13:56:10;;;;;;;8.60;1.70;;;3.70;99.90;;;;;;4903007;29;20183;-92
2022/01/21 13:58:45;;;;;;;7.30;2.20;;;3.70;99.90;;;;;;4903093;29;20206;-93
2022/01/21 14:01:14;;;;;;;14.00;2.10;;;3.60;99.90;;;;;;4903722;29;20175;-94
2022/01/21 14:03:42;;;;;;;12.73;2.40;;;3.60;99.90;;;;;;4904047;29;20668;-93
2022/01/21 14:06:13;;;;;;;15.97;2.80;;;3.60;99.90;;;;;;4903163;29;20183;-94
2022/01/21 14:08:59;;;;;;;7.23;2.00;;;3.70;99.90;;;;;;4903510;29;20243;-93
2022/01/21 14:11:46;;;;;;;9.50;2.10;;;3.70;99.90;;;;;;4903787;29;20186;-95
2022/01/21 14:14:15;;;;;;;7.27;1.93;;;3.70;99.90;;;;;;4904213;29;20270;-93